Time;durP1;ratioP1;P1;durP2;ratioP2;P2;SDS_P1;SDS_P2;PMS_P1;PMS_P2;Temp;Humidity;BMP_temperature;BMP_pressure;BME280_temperature;BME280_humidity;BME280_pressure;Samples;Min_cycle;Max_cycle;Signal;HPM_P1;HPM_P2
2022/10/09 00:01:28;;;;;;;0.70;0.70;;;9.20;99.90;9.60;102281.00;;;;5034682;28;20198;-67
2022/10/09 00:03:56;;;;;;;0.70;0.70;;;9.10;99.90;9.80;102297.00;;;;5034529;28;20178;-67
2022/10/09 00:06:30;;;;;;;0.80;0.80;;;9.00;99.90;10.10;102316.00;;;;5017762;28;20180;-67
2022/10/09 00:08:58;;;;;;;0.80;0.80;;;9.20;99.90;9.70;102315.00;;;;5034408;28;20175;-67
2022/10/09 00:11:26;;;;;;;1.03;1.03;;;9.20;99.90;9.80;102317.00;;;;5034512;28;20638;-67
2022/10/09 00:13:53;;;;;;;0.73;0.73;;;9.10;99.90;10.00;102311.00;;;;5034109;28;20257;-67
2022/10/09 00:16:20;;;;;;;0.70;0.70;;;9.20;99.90;9.50;102311.00;;;;5034771;28;20176;-67
2022/10/09 00:18:46;;;;;;;0.60;0.60;;;9.00;99.90;9.90;102313.00;;;;5034075;28;20178;-67
2022/10/09 00:21:25;;;;;;;0.70;0.70;;;9.20;99.90;9.90;102311.00;;;;5018051;28;20185;-67
2022/10/09 00:23:53;;;;;;;1.73;1.63;;;9.20;99.90;10.20;102305.00;;;;5034080;28;20175;-67
2022/10/09 00:26:19;;;;;;;0.70;0.70;;;9.30;99.90;10.10;102310.00;;;;5017656;28;20248;-67
2022/10/09 00:28:46;;;;;;;0.70;0.70;;;9.30;99.90;10.10;102304.00;;;;5050534;28;20212;-67
2022/10/09 00:31:12;;;;;;;0.70;0.70;;;9.40;99.90;9.60;102303.00;;;;5034889;28;20175;-67
2022/10/09 00:33:38;;;;;;;0.70;0.70;;;9.20;99.90;9.50;102307.00;;;;5017442;28;20194;-67
2022/10/09 00:36:14;;;;;;;0.73;0.73;;;9.00;99.90;9.50;102269.00;;;;5034023;28;20226;-67
2022/10/09 00:38:40;;;;;;;1.17;1.13;;;8.90;99.90;9.90;102261.00;;;;5033749;28;20595;-67
2022/10/09 00:41:06;;;;;;;0.70;0.70;;;9.10;99.90;9.70;102293.00;;;;5033838;28;20709;-67
2022/10/09 00:43:50;;;;;;;0.70;0.70;;;9.10;99.90;10.10;102310.00;;;;5033369;28;20659;-67
2022/10/09 00:46:38;;;;;;;2.07;1.97;;;9.20;99.90;9.80;102303.00;;;;5035136;28;20171;-67
2022/10/09 00:49:26;;;;;;;0.70;0.70;;;9.10;99.90;9.80;102299.00;;;;5033938;28;20186;-67
2022/10/09 00:51:56;;;;;;;1.10;1.10;;;9.00;99.90;9.60;102292.00;;;;5033893;28;20197;-67
2022/10/09 00:54:25;;;;;;;0.60;0.60;;;9.00;99.90;9.60;102302.00;;;;5034518;28;20207;-67
2022/10/09 00:56:52;;;;;;;0.70;0.70;;;8.90;99.90;9.70;102296.00;;;;5032705;28;20164;-67
2022/10/09 00:59:18;;;;;;;0.70;0.70;;;9.00;99.90;9.70;102290.00;;;;5033751;28;20587;-67
2022/10/09 01:01:45;;;;;;;0.80;0.80;;;9.00;99.90;10.00;102295.00;;;;5033407;28;20218;-67
2022/10/09 01:04:11;;;;;;;0.70;0.70;;;9.20;99.90;9.50;102286.00;;;;5016870;28;20273;-67
2022/10/09 01:06:59;;;;;;;0.70;0.70;;;9.00;99.90;9.20;102300.00;;;;5016710;28;20179;-67
2022/10/09 01:09:44;;;;;;;1.53;1.47;;;8.70;99.90;8.90;102291.00;;;;5033138;28;20700;-67
2022/10/09 01:12:38;;;;;;;0.60;0.60;;;8.60;99.90;9.20;102295.00;;;;5033061;28;20285;-67
2022/10/09 01:15:31;;;;;;;0.70;0.70;;;8.50;99.90;9.50;102286.00;;;;5032958;28;20673;-67
2022/10/09 01:18:16;;;;;;;1.60;1.60;;;8.80;99.90;9.20;102293.00;;;;5016837;28;20183;-67
2022/10/09 01:21:06;;;;;;;0.70;0.70;;;8.60;99.90;9.20;102288.00;;;;5032903;28;20179;-67
2022/10/09 01:24:14;;;;;;;0.80;0.80;;;8.60;99.90;9.80;102286.00;;;;5033085;28;20192;-67
2022/10/09 01:27:01;;;;;;;0.80;0.80;;;8.80;99.90;9.40;102278.00;;;;5032687;28;20197;-67
2022/10/09 01:29:59;;;;;;;0.80;0.80;;;8.80;99.90;9.20;102278.00;;;;5032568;28;20662;-67
2022/10/09 01:32:34;;;;;;;0.63;0.63;;;8.70;99.90;8.70;102279.00;;;;5016232;28;20221;-67
2022/10/09 01:35:01;;;;;;;0.70;0.70;;;8.50;99.90;8.80;102266.00;;;;5017049;28;20194;-67
2022/10/09 01:37:46;;;;;;;1.47;1.43;;;8.40;99.90;9.50;102269.00;;;;5034106;28;20216;-67
2022/10/09 01:40:15;;;;;;;0.73;0.73;;;8.60;99.90;9.40;102264.00;;;;5032967;28;20677;-67
2022/10/09 01:42:42;;;;;;;0.70;0.70;;;8.60;99.90;9.30;102252.00;;;;5032551;28;20186;-67
2022/10/09 01:45:09;;;;;;;0.70;0.70;;;8.60;99.90;9.50;102256.00;;;;5032713;28;20624;-67
2022/10/09 01:47:36;;;;;;;0.70;0.70;;;8.70;99.90;9.40;102256.00;;;;5033135;28;20211;-67
2022/10/09 01:50:08;;;;;;;0.60;0.60;;;8.70;99.90;8.60;102255.00;;;;5032593;28;20194;-67
2022/10/09 01:52:58;;;;;;;0.60;0.60;;;8.40;99.90;8.60;102256.00;;;;5032188;28;20259;-67
2022/10/09 01:55:33;;;;;;;0.60;0.60;;;8.30;99.90;9.10;102252.00;;;;5016375;28;20189;-67
2022/10/09 01:58:22;;;;;;;0.60;0.60;;;8.40;99.90;9.20;102245.00;;;;5032546;28;20191;-67
2022/10/09 02:01:20;;;;;;;0.70;0.70;;;8.50;99.90;9.10;102248.00;;;;5015984;28;20222;-67
2022/10/09 02:04:15;;;;;;;0.70;0.70;;;8.40;99.90;9.10;102234.00;;;;5029895;28;20200;-67
2022/10/09 02:06:42;;;;;;;1.07;1.07;;;8.40;99.90;9.40;102236.00;;;;5031819;28;20189;-67
2022/10/09 02:09:12;;;;;;;0.67;0.67;;;8.40;99.90;9.60;102233.00;;;;5015561;28;20179;-67
2022/10/09 02:11:43;;;;;;;0.70;0.70;;;8.70;99.90;9.00;102227.00;;;;5031966;28;20268;-67
2022/10/09 02:14:09;;;;;;;0.70;0.70;;;8.50;99.90;8.90;102230.00;;;;5032323;28;20189;-67
2022/10/09 02:16:39;;;;;;;0.70;0.70;;;8.30;99.90;9.10;102213.00;;;;5032371;28;20266;-67
2022/10/09 02:19:35;;;;;;;2.40;2.30;;;8.30;99.90;9.30;102227.00;;;;5015740;28;20661;-67
2022/10/09 02:22:19;;;;;;;0.80;0.80;;;8.40;99.90;8.80;102220.00;;;;5015514;28;20183;-67
2022/10/09 02:24:45;;;;;;;0.70;0.70;;;8.20;99.90;9.00;102223.00;;;;5015628;28;20657;-67
2022/10/09 02:27:12;;;;;;;0.80;0.80;;;8.30;99.90;8.60;102220.00;;;;5032031;28;20181;-67
2022/10/09 02:29:43;;;;;;;0.77;0.77;;;8.20;99.90;8.20;102222.00;;;;5032063;28;20222;-67
2022/10/09 02:32:10;;;;;;;2.40;2.30;;;8.00;99.90;8.30;102228.00;;;;5031425;28;20210;-67
2022/10/09 02:34:36;;;;;;;0.70;0.70;;;7.90;99.90;9.00;102220.00;;;;5015621;28;20722;-67
2022/10/09 02:37:08;;;;;;;0.70;0.70;;;8.20;99.90;9.10;102204.00;;;;5015682;28;20180;-67
2022/10/09 02:39:34;;;;;;;1.58;1.48;;;8.30;99.90;8.90;102214.00;;;;5014557;28;20996;-67
2022/10/09 02:41:59;;;;;;;1.80;1.77;;;8.30;99.90;8.30;102201.00;;;;5031803;28;20270;-67
2022/10/09 02:44:26;;;;;;;0.70;0.70;;;8.00;99.90;8.70;102205.00;;;;5015387;28;20617;-68
2022/10/09 02:46:52;;;;;;;0.60;0.60;;;8.00;99.90;8.70;102204.00;;;;5031806;28;20232;-67
2022/10/09 02:49:17;;;;;;;0.70;0.70;;;8.00;99.90;8.60;102206.00;;;;5015650;28;20178;-67
2022/10/09 02:51:43;;;;;;;4.10;4.00;;;7.90;99.90;8.40;102203.00;;;;5015153;28;20238;-67
2022/10/09 02:54:09;;;;;;;0.70;0.70;;;7.80;99.90;8.50;102192.00;;;;5015301;28;20642;-67
2022/10/09 02:56:36;;;;;;;0.77;0.77;;;8.00;99.90;8.90;102172.00;;;;5015084;28;20269;-67
2022/10/09 02:59:02;;;;;;;1.33;1.33;;;8.00;99.90;8.50;102202.00;;;;5015200;28;20732;-67
2022/10/09 03:01:28;;;;;;;0.70;0.70;;;8.00;99.90;8.90;102189.00;;;;5031914;28;20256;-67
2022/10/09 03:03:56;;;;;;;0.70;0.70;;;8.00;99.90;8.90;102206.00;;;;5015058;28;20646;-67
2022/10/09 03:06:25;;;;;;;0.70;0.70;;;8.10;99.90;8.70;102173.00;;;;5031598;28;20257;-68
2022/10/09 03:08:57;;;;;;;0.70;0.70;;;8.00;99.90;8.70;102197.00;;;;5032636;28;20535;-67
2022/10/09 03:11:24;;;;;;;0.77;0.77;;;8.00;99.90;8.80;102186.00;;;;5015041;28;20601;-67
2022/10/09 03:13:56;;;;;;;0.80;0.80;;;8.00;99.90;8.60;102203.00;;;;5015097;28;20189;-67
2022/10/09 03:16:24;;;;;;;0.80;0.80;;;8.00;99.90;8.90;102200.00;;;;5033163;28;20505;-67
2022/10/09 03:18:51;;;;;;;0.70;0.70;;;8.00;99.90;8.80;102197.00;;;;5032981;28;20182;-67
2022/10/09 03:21:24;;;;;;;0.70;0.70;;;8.10;99.90;8.80;102167.00;;;;5035608;28;20661;-67
2022/10/09 03:23:52;;;;;;;0.70;0.70;;;8.10;99.90;8.60;102207.00;;;;5036595;28;20244;-67
2022/10/09 03:26:22;;;;;;;0.70;0.70;;;8.00;99.90;8.70;102199.00;;;;5018853;28;20196;-67
2022/10/09 03:28:50;;;;;;;0.80;0.80;;;8.00;99.90;8.70;102208.00;;;;5035266;28;20183;-67
2022/10/09 03:31:19;;;;;;;0.80;0.80;;;7.90;99.90;9.00;102190.00;;;;5036352;28;20186;-67
2022/10/09 03:33:45;;;;;;;0.70;0.70;;;8.10;99.90;8.60;102202.00;;;;5036308;28;20193;-67
2022/10/09 03:36:11;;;;;;;0.70;0.70;;;8.00;99.90;8.50;102208.00;;;;5034930;28;20183;-67
2022/10/09 03:38:38;;;;;;;0.70;0.70;;;7.90;99.90;8.90;102201.00;;;;5034793;28;20174;-67
2022/10/09 03:41:05;;;;;;;0.80;0.80;;;8.00;99.90;8.50;102207.00;;;;5019006;28;20187;-67
2022/10/09 03:43:34;;;;;;;0.80;0.80;;;8.00;99.90;8.20;102203.00;;;;5034980;28;20179;-67
2022/10/09 03:46:07;;;;;;;0.80;0.80;;;7.90;99.90;8.60;102191.00;;;;5035064;28;20538;-67
2022/10/09 03:48:39;;;;;;;0.70;0.70;;;7.80;99.90;8.50;102194.00;;;;5034818;28;20277;-67
2022/10/09 03:51:07;;;;;;;0.80;0.80;;;7.80;99.90;8.30;102196.00;;;;5034862;28;20177;-67
2022/10/09 03:53:34;;;;;;;1.57;1.57;;;7.80;99.90;8.30;102191.00;;;;5018300;28;20187;-67
2022/10/09 03:56:02;;;;;;;4.00;3.90;;;7.80;99.90;8.30;102188.00;;;;5018411;28;20193;-67
2022/10/09 03:58:28;;;;;;;0.80;0.80;;;7.70;99.90;8.60;102191.00;;;;5034587;28;20552;-67
2022/10/09 04:00:54;;;;;;;0.80;0.80;;;7.80;99.90;8.40;102188.00;;;;5017950;28;20193;-67
2022/10/09 04:03:20;;;;;;;0.70;0.70;;;7.80;99.90;8.70;102152.00;;;;5017955;28;20194;-67
2022/10/09 04:05:46;;;;;;;0.80;0.80;;;7.80;99.90;8.70;102192.00;;;;5017553;28;20188;-67
2022/10/09 04:08:12;;;;;;;2.23;2.17;;;7.90;99.90;8.60;102180.00;;;;5017882;28;20276;-67
2022/10/09 04:10:38;;;;;;;0.80;0.80;;;7.80;99.90;8.50;102180.00;;;;5035845;28;20182;-67
2022/10/09 04:13:05;;;;;;;0.80;0.80;;;7.80;99.90;8.50;102176.00;;;;5034105;28;20221;-67
2022/10/09 04:15:31;;;;;;;0.80;0.80;;;7.80;99.90;8.60;102175.00;;;;5034486;28;20186;-67
2022/10/09 04:17:56;;;;;;;0.80;0.80;;;7.80;99.90;8.70;102175.00;;;;5017723;28;20181;-67
2022/10/09 04:20:22;;;;;;;0.80;0.80;;;7.90;99.90;8.30;102186.00;;;;5033964;28;20190;-68
2022/10/09 04:22:48;;;;;;;0.70;0.70;;;7.80;99.90;8.20;102183.00;;;;5034114;28;20265;-67
2022/10/09 04:25:14;;;;;;;0.80;0.80;;;7.60;99.90;8.40;102171.00;;;;5017845;28;20183;-67
2022/10/09 04:27:40;;;;;;;0.90;0.90;;;7.80;99.90;8.20;102168.00;;;;5017639;28;20672;-67
2022/10/09 04:30:07;;;;;;;1.13;1.13;;;7.70;99.90;7.90;102172.00;;;;5017537;28;20191;-67
2022/10/09 04:32:35;;;;;;;0.70;0.70;;;7.60;99.90;8.20;102168.00;;;;5017392;28;20221;-68
2022/10/09 04:35:01;;;;;;;0.70;0.70;;;7.60;99.90;8.40;102172.00;;;;5017305;28;20231;-67
2022/10/09 04:37:27;;;;;;;1.73;1.60;;;7.70;99.90;8.30;102168.00;;;;5017718;28;20182;-67
2022/10/09 04:39:53;;;;;;;1.10;1.10;;;7.70;99.90;8.60;102169.00;;;;5017492;28;20201;-67
2022/10/09 04:42:19;;;;;;;0.80;0.80;;;7.80;99.90;8.70;102170.00;;;;5033672;28;20190;-67
2022/10/09 04:44:45;;;;;;;1.40;1.40;;;7.90;99.90;8.70;102161.00;;;;5017330;28;20185;-67
2022/10/09 04:47:10;;;;;;;2.47;2.37;;;7.90;99.90;8.80;102154.00;;;;5017212;28;20193;-67
2022/10/09 04:49:39;;;;;;;1.00;1.00;;;8.00;99.90;8.60;102152.00;;;;5016732;28;20594;-67
2022/10/09 04:52:08;;;;;;;1.83;1.83;;;8.00;99.90;8.90;102114.00;;;;5017305;28;20209;-67
2022/10/09 04:54:35;;;;;;;0.80;0.80;;;8.00;99.90;8.90;102148.00;;;;5033453;28;20228;-68
2022/10/09 04:57:03;;;;;;;0.80;0.80;;;8.00;99.90;8.80;102145.00;;;;5017597;28;20633;-67
2022/10/09 04:59:29;;;;;;;1.00;1.00;;;8.10;99.90;8.70;102151.00;;;;5016884;28;20213;-67
2022/10/09 05:01:55;;;;;;;0.83;0.83;;;8.00;99.90;9.10;102146.00;;;;5017041;28;20244;-67
2022/10/09 05:04:21;;;;;;;0.80;0.80;;;8.20;99.90;9.00;102143.00;;;;5016587;28;20186;-67
2022/10/09 05:06:47;;;;;;;0.80;0.80;;;8.30;99.90;8.70;102130.00;;;;5017053;28;20175;-67
2022/10/09 05:09:13;;;;;;;0.80;0.80;;;8.10;99.90;8.50;102138.00;;;;5034602;28;20179;-67
2022/10/09 05:11:39;;;;;;;0.80;0.80;;;7.90;99.90;8.60;102133.00;;;;5016684;28;20755;-67
2022/10/09 05:14:05;;;;;;;0.83;0.83;;;7.90;99.90;8.60;102135.00;;;;5016600;28;20193;-67
2022/10/09 05:16:31;;;;;;;0.90;0.90;;;7.90;99.90;8.50;102133.00;;;;5016646;28;20183;-67
2022/10/09 05:18:59;;;;;;;0.90;0.90;;;7.90;99.90;8.80;102134.00;;;;5016548;28;20264;-67
2022/10/09 05:21:27;;;;;;;0.90;0.90;;;7.90;99.90;8.40;102133.00;;;;5034403;28;20175;-66
2022/10/09 05:23:56;;;;;;;0.90;0.90;;;7.80;99.90;8.50;102094.00;;;;5016648;28;20194;-67
2022/10/09 05:26:26;;;;;;;0.80;0.80;;;7.80;99.90;8.30;102126.00;;;;5016377;28;20177;-67
2022/10/09 05:28:52;;;;;;;1.57;1.57;;;7.80;99.90;8.40;102134.00;;;;5034046;28;20233;-66
2022/10/09 05:31:24;;;;;;;0.90;0.90;;;7.70;99.90;8.30;102130.00;;;;5032621;28;20195;-67
2022/10/09 05:33:50;;;;;;;1.37;1.37;;;7.70;99.90;8.30;102130.00;;;;5016225;28;20213;-67
2022/10/09 05:36:17;;;;;;;1.17;1.17;;;7.70;99.90;8.40;102115.00;;;;5016417;28;20203;-67
2022/10/09 05:38:44;;;;;;;0.90;0.90;;;7.70;99.90;8.60;102125.00;;;;5032745;28;20208;-67
2022/10/09 05:41:13;;;;;;;0.90;0.90;;;7.80;99.90;8.50;102119.00;;;;5032456;28;20266;-67
2022/10/09 05:43:42;;;;;;;0.90;0.90;;;7.80;99.90;8.60;102127.00;;;;5032866;28;20274;-67
2022/10/09 05:46:22;;;;;;;0.80;0.80;;;7.80;99.90;8.80;102129.00;;;;5016474;28;20182;-67
2022/10/09 05:48:55;;;;;;;1.00;1.00;;;7.90;99.90;8.80;102125.00;;;;5032466;28;20197;-67
2022/10/09 05:51:27;;;;;;;0.90;0.90;;;8.10;99.90;8.90;102138.00;;;;5032437;28;20259;-67
2022/10/09 05:53:54;;;;;;;0.90;0.90;;;8.10;99.90;8.90;102121.00;;;;5016157;28;20194;-67
2022/10/09 05:56:28;;;;;;;0.90;0.90;;;8.20;99.90;9.10;102129.00;;;;5032291;28;20178;-67
2022/10/09 05:58:57;;;;;;;0.90;0.90;;;8.30;99.90;8.90;102120.00;;;;5015878;28;20187;-67
2022/10/09 06:01:27;;;;;;;0.90;0.90;;;8.20;99.90;8.90;102118.00;;;;5033351;28;20178;-67
2022/10/09 06:04:00;;;;;;;1.53;1.53;;;8.20;99.90;9.20;102126.00;;;;5015909;28;20224;-67
2022/10/09 06:06:30;;;;;;;1.03;1.03;;;8.30;99.90;8.80;102120.00;;;;5032191;28;20185;-67
2022/10/09 06:08:57;;;;;;;0.90;0.90;;;8.30;99.90;8.90;102112.00;;;;5033465;28;20242;-67
2022/10/09 06:11:32;;;;;;;0.83;0.83;;;8.10;99.90;8.80;102125.00;;;;5015993;28;20520;-67
2022/10/09 06:14:00;;;;;;;1.20;1.20;;;8.20;99.90;8.90;102108.00;;;;5032220;28;20206;-67
2022/10/09 06:16:31;;;;;;;0.80;0.80;;;8.20;99.90;8.80;102111.00;;;;5031858;28;20187;-67
2022/10/09 06:18:57;;;;;;;0.90;0.90;;;8.20;99.90;9.00;102116.00;;;;5015667;28;20573;-67
2022/10/09 06:21:25;;;;;;;0.90;0.90;;;8.20;99.90;8.90;102117.00;;;;5031953;28;20589;-67
2022/10/09 06:23:57;;;;;;;1.00;1.00;;;8.20;99.90;8.60;102121.00;;;;5015820;28;20214;-67
2022/10/09 06:26:24;;;;;;;1.47;1.47;;;8.20;99.90;9.00;102104.00;;;;5033161;28;20181;-67
2022/10/09 06:28:54;;;;;;;0.90;0.90;;;8.30;99.90;9.00;102128.00;;;;5048616;28;20229;-67
2022/10/09 06:31:23;;;;;;;0.90;0.90;;;8.30;99.90;9.00;102109.00;;;;5031890;28;20193;-67
2022/10/09 06:33:51;;;;;;;0.93;0.93;;;8.40;99.90;9.00;102126.00;;;;5033157;28;20228;-67
2022/10/09 06:36:23;;;;;;;1.00;1.00;;;8.40;99.90;9.10;102121.00;;;;5033197;28;20181;-67
2022/10/09 06:38:51;;;;;;;1.47;1.43;;;8.60;99.90;9.40;102117.00;;;;5031886;28;20669;-67
2022/10/09 06:42:04;;;;;;;1.60;1.60;;;8.70;99.90;9.30;102105.00;;;;5032294;28;20167;-67
2022/10/09 06:44:30;;;;;;;1.33;1.30;;;8.70;99.90;9.30;102113.00;;;;5031712;28;20190;-68
2022/10/09 06:46:59;;;;;;;0.90;0.90;;;8.80;99.90;9.40;102114.00;;;;5015450;28;20190;-68
2022/10/09 06:49:27;;;;;;;0.80;0.80;;;8.90;99.90;9.30;102112.00;;;;5031894;28;20314;-68
2022/10/09 06:51:53;;;;;;;0.90;0.90;;;8.90;99.90;9.60;102115.00;;;;5015689;28;20602;-68
2022/10/09 06:54:19;;;;;;;0.80;0.80;;;9.00;99.90;9.30;102110.00;;;;5017568;28;20191;-68
2022/10/09 06:56:47;;;;;;;1.00;1.00;;;8.90;99.90;9.60;102103.00;;;;5019010;28;20213;-68
2022/10/09 06:59:16;;;;;;;1.73;1.63;;;9.00;99.90;9.60;102107.00;;;;5019173;28;20213;-68
2022/10/09 07:02:00;;;;;;;0.80;0.80;;;9.00;99.90;9.50;102112.00;;;;5019183;28;20185;-68
2022/10/09 07:04:28;;;;;;;0.97;0.97;;;9.10;99.90;9.60;102122.00;;;;5036038;28;20183;-68
2022/10/09 07:06:54;;;;;;;0.60;0.60;;;9.10;99.90;9.70;102108.00;;;;5033178;28;20546;-68
2022/10/09 07:10:01;;;;;;;1.27;1.27;;;9.20;99.90;9.90;102117.00;;;;5035545;28;20180;-68
2022/10/09 07:12:27;;;;;;;0.63;0.63;;;9.30;99.90;9.80;102120.00;;;;5018967;28;20202;-68
2022/10/09 07:14:53;;;;;;;0.87;0.87;;;9.50;99.90;10.50;102121.00;;;;5018942;28;20673;-68
2022/10/09 07:17:26;;;;;;;1.97;0.90;;;9.80;99.90;10.30;102112.00;;;;5018685;28;20180;-69
2022/10/09 07:20:13;;;;;;;0.70;0.70;;;9.80;99.90;10.80;102106.00;;;;5036778;28;20186;-69
2022/10/09 07:22:45;;;;;;;0.60;0.60;;;10.10;99.90;11.40;102112.00;;;;5035506;28;20195;-69
2022/10/09 07:25:11;;;;;;;0.70;0.70;;;10.50;99.90;11.50;102113.00;;;;5035594;28;20192;-66
2022/10/09 07:27:45;;;;;;;1.00;1.00;;;10.70;99.90;11.40;102098.00;;;;5018763;28;20185;-66
2022/10/09 07:30:14;;;;;;;0.60;0.60;;;10.80;99.90;11.70;102085.00;;;;5036559;28;20527;-66
2022/10/09 07:32:40;;;;;;;0.50;0.50;;;10.90;99.90;11.50;102105.00;;;;5036548;28;20301;-66
2022/10/09 07:35:26;;;;;;;0.60;0.60;;;11.00;99.90;12.20;102109.00;;;;5018884;28;20275;-67
2022/10/09 07:37:55;;;;;;;0.50;0.50;;;11.30;99.90;13.20;102111.00;;;;5034874;28;20268;-67
2022/10/09 07:40:39;;;;;;;0.90;0.90;;;12.10;99.90;13.60;102135.00;;;;5036184;28;20185;-66
2022/10/09 07:43:05;;;;;;;0.50;0.50;;;12.70;99.90;13.90;102133.00;;;;5018308;28;20181;-66
2022/10/09 07:45:48;;;;;;;0.50;0.50;;;13.10;99.90;15.00;102143.00;;;;5018880;28;20246;-66
2022/10/09 07:48:14;;;;;;;0.40;0.40;;;13.70;99.90;15.70;102159.00;;;;5034878;28;20176;-67
2022/10/09 07:50:52;;;;;;;0.30;0.30;;;14.20;99.90;15.40;102169.00;;;;5018213;28;20544;-67
2022/10/09 07:53:19;;;;;;;0.20;0.20;;;14.60;99.90;16.00;102185.00;;;;5034756;28;20543;-67
2022/10/09 07:55:46;;;;;;;0.30;0.30;;;14.90;99.90;15.80;102187.00;;;;5036084;28;20216;-67
2022/10/09 07:58:16;;;;;;;0.20;0.20;;;15.00;99.90;15.90;102184.00;;;;5035688;28;20177;-66
2022/10/09 08:00:45;;;;;;;0.47;0.47;;;15.10;99.90;14.80;102143.00;;;;5034576;28;20211;-67
2022/10/09 08:03:13;;;;;;;0.53;0.53;;;14.60;99.90;14.10;102158.00;;;;5034646;28;20185;-67
2022/10/09 08:05:39;;;;;;;1.80;1.00;;;14.10;99.90;15.10;102156.00;;;;5035496;28;20276;-67
2022/10/09 08:08:05;;;;;;;0.70;0.70;;;14.20;99.90;15.70;102173.00;;;;5018106;28;20193;-67
2022/10/09 08:10:31;;;;;;;0.30;0.30;;;14.70;99.90;15.80;102180.00;;;;5035830;28;20190;-67
2022/10/09 08:13:00;;;;;;;0.63;0.63;;;15.10;99.90;16.60;102180.00;;;;5033953;28;20350;-67
2022/10/09 08:15:26;;;;;;;0.80;0.80;;;15.30;99.90;16.20;102191.00;;;;5017837;28;20184;-67
2022/10/09 08:17:55;;;;;;;0.30;0.30;;;15.40;99.90;16.20;102192.00;;;;5017849;28;20188;-66
2022/10/09 08:20:22;;;;;;;0.30;0.30;;;15.50;99.90;15.70;102180.00;;;;5018072;28;20163;-67
2022/10/09 08:22:47;;;;;;;0.60;0.60;;;15.30;99.90;16.10;102193.00;;;;5017932;28;20179;-67
2022/10/09 08:25:14;;;;;;;0.20;0.20;;;15.50;99.90;15.60;102173.00;;;;5017615;28;20265;-67
2022/10/09 08:28:00;;;;;;;0.27;0.27;;;15.10;99.90;16.60;102187.00;;;;5017437;28;20192;-67
2022/10/09 08:30:29;;;;;;;0.83;0.60;;;15.40;99.90;16.10;102191.00;;;;5034193;28;20187;-68
2022/10/09 08:32:57;;;;;;;0.20;0.20;;;15.40;99.90;16.50;102192.00;;;;5033625;28;20236;-67
2022/10/09 08:35:32;;;;;;;0.43;0.43;;;15.50;99.90;17.50;102182.00;;;;5034077;28;20230;-67
2022/10/09 08:37:58;;;;;;;0.53;0.53;;;16.10;99.90;16.80;102221.00;;;;5034330;28;20200;-67
2022/10/09 08:40:36;;;;;;;0.40;0.40;;;16.20;99.90;16.80;102218.00;;;;5017201;28;20210;-67
2022/10/09 08:43:05;;;;;;;1.03;1.03;;;16.10;99.90;16.90;102212.00;;;;5050649;28;20639;-67
2022/10/09 08:45:34;;;;;;;0.50;0.47;;;16.20;99.90;16.90;102203.00;;;;5035042;28;20185;-67
2022/10/09 08:48:15;;;;;;;1.80;1.03;;;16.10;99.90;16.90;102199.00;;;;5034306;28;20215;-67
2022/10/09 08:50:49;;;;;;;0.70;0.70;;;16.00;99.90;16.20;102199.00;;;;5035046;28;20281;-67
2022/10/09 08:53:35;;;;;;;0.20;0.20;;;15.80;99.90;15.80;102182.00;;;;5033829;28;21348;-67
2022/10/09 08:56:09;;;;;;;1.57;0.77;;;15.40;99.90;16.80;102194.00;;;;5017108;28;20274;-67
2022/10/09 08:58:38;;;;;;;0.80;0.63;;;15.70;99.90;17.10;102190.00;;;;5017189;28;20183;-67
2022/10/09 09:01:31;;;;;;;0.23;0.23;;;16.10;99.90;16.70;102200.00;;;;5033610;28;20179;-67
2022/10/09 09:05:05;;;;;;;0.50;0.50;;;16.10;99.90;17.20;102198.00;;;;5033863;28;20216;-67
2022/10/09 09:08:00;;;;;;;0.50;0.50;;;16.20;99.90;17.10;102195.00;;;;4996561;28;20550;-67
2022/10/09 09:10:40;;;;;;;0.30;0.30;;;16.40;99.90;17.20;102191.00;;;;5033251;28;20182;-67
2022/10/09 09:13:37;;;;;;;0.67;0.67;;;16.40;99.90;16.90;102188.00;;;;5033309;28;20196;-67
2022/10/09 09:16:14;;;;;;;0.10;0.10;;;16.30;99.90;17.60;102189.00;;;;5032346;28;20203;-67
2022/10/09 09:19:02;;;;;;;0.20;0.20;;;16.60;99.90;18.70;102194.00;;;;5033278;28;20674;-67
2022/10/09 09:21:48;;;;;;;0.37;0.30;;;17.20;99.90;18.80;102200.00;;;;5049437;28;20189;-67
2022/10/09 09:24:50;;;;;;;0.20;0.20;;;17.60;99.90;19.10;102203.00;;;;5034266;28;20225;-68
2022/10/09 09:27:38;;;;;;;0.20;0.20;;;17.70;99.90;19.00;102199.00;;;;5033024;28;20180;-67
2022/10/09 09:30:39;;;;;;;0.10;0.10;;;18.00;99.90;19.30;102198.00;;;;5032977;28;20202;-67
2022/10/09 09:33:21;;;;;;;0.97;0.83;;;18.20;99.90;18.40;102203.00;;;;5022313;28;20260;-67
2022/10/09 09:35:58;;;;;;;0.40;0.40;;;18.00;99.90;19.70;102190.00;;;;5033076;28;20268;-67
2022/10/09 09:38:41;;;;;;;0.37;0.37;;;18.30;99.90;19.00;102191.00;;;;5016279;28;20227;-68
2022/10/09 09:41:07;;;;;;;0.10;0.10;;;18.30;99.90;18.70;102197.00;;;;5032492;28;20180;-67
2022/10/09 09:43:39;;;;;;;0.20;0.20;;;18.10;99.90;18.90;102188.00;;;;5034225;28;20190;-67
2022/10/09 09:46:16;;;;;;;0.20;0.20;;;18.10;99.90;19.60;102187.00;;;;5016592;28;20183;-67
2022/10/09 09:49:28;;;;;;;0.82;0.80;;;18.20;99.90;19.70;102177.00;;;;5016417;28;20560;-67
2022/10/09 09:52:05;;;;;;;0.10;0.10;;;18.70;99.90;19.00;102152.00;;;;5032005;28;20304;-67
2022/10/09 09:54:33;;;;;;;0.10;0.10;;;18.40;99.90;20.00;102174.00;;;;5015830;28;20214;-67
2022/10/09 09:57:09;;;;;;;2.38;0.82;;;18.60;99.90;19.10;102178.00;;;;5033536;28;20664;-67
2022/10/09 09:59:41;;;;;;;0.10;0.10;;;18.60;99.90;18.90;102188.00;;;;5032621;28;20175;-67
2022/10/09 10:02:18;;;;;;;0.10;0.10;;;18.10;99.90;20.30;102154.00;;;;5032504;28;20186;-68
2022/10/09 10:05:00;;;;;;;0.10;0.10;;;18.80;99.90;20.50;102176.00;;;;5033574;28;20202;-68
2022/10/09 10:07:35;;;;;;;0.10;0.10;;;19.20;99.90;21.30;102131.00;;;;5033211;28;20661;-68
2022/10/09 10:10:19;;;;;;;0.20;0.20;;;19.70;99.90;19.50;102175.00;;;;5033372;28;20656;-67
2022/10/09 10:12:52;;;;;;;0.20;0.20;;;19.30;99.90;20.30;102154.00;;;;5015870;28;20264;-67
2022/10/09 10:15:36;;;;;;;0.20;0.20;;;19.20;99.90;19.80;102175.00;;;;5032291;28;20179;-67
2022/10/09 10:18:20;;;;;;;0.15;0.15;;;19.30;99.90;20.60;102169.00;;;;5032109;28;20261;-68
2022/10/09 10:33:57;;;;;;;0.10;0.10;;;18.90;99.90;20.20;102139.00;;;;5070949;28;20597;-69
2022/10/09 10:36:26;;;;;;;1.25;0.20;;;19.30;99.90;20.40;102099.00;;;;5049305;28;20187;-69
2022/10/09 10:39:24;;;;;;;0.13;0.13;;;19.50;99.90;20.70;102114.00;;;;5049516;28;20701;-68
2022/10/09 10:42:31;;;;;;;0.10;0.10;;;19.50;99.90;21.30;102112.00;;;;5050345;28;20179;-69
2022/10/09 10:45:59;;;;;;;0.20;0.20;;;20.00;99.90;22.10;102096.00;;;;5053885;28;20186;-66
2022/10/09 10:48:38;;;;;;;0.10;0.10;;;20.60;99.90;21.70;102098.00;;;;5075070;28;20190;-66
2022/10/09 10:52:03;;;;;;;0.20;0.20;;;20.60;99.90;20.80;102112.00;;;;5048796;28;20293;-67
2022/10/09 10:55:37;;;;;;;0.10;0.10;;;20.30;99.90;21.40;102103.00;;;;5049559;28;20194;-66
2022/10/09 10:58:23;;;;;;;0.10;0.10;;;20.40;99.90;20.90;102113.00;;;;5041596;28;20578;-67
2022/10/09 11:01:34;;;;;;;0.10;0.10;;;20.00;99.90;22.00;102095.00;;;;5048913;28;20273;-67
2022/10/09 11:04:48;;;;;;;0.30;0.30;;;20.50;99.90;21.90;102087.00;;;;5049009;28;20214;-67
2022/10/09 11:07:33;;;;;;;0.38;0.38;;;20.60;99.90;21.00;102102.00;;;;5047943;28;20190;-66
2022/10/09 11:10:33;;;;;;;1.17;0.68;;;20.40;99.90;21.20;102095.00;;;;5050464;28;20257;-67
2022/10/09 11:13:26;;;;;;;6.22;1.05;;;20.10;99.90;21.50;102094.00;;;;5048571;28;20205;-66
2022/10/09 11:16:11;;;;;;;0.20;0.20;;;20.20;99.90;21.90;102080.00;;;;5032396;28;20174;-66
2022/10/09 11:19:07;;;;;;;0.38;0.38;;;20.60;99.90;22.20;102072.00;;;;5049776;28;20210;-67
2022/10/09 11:22:07;;;;;;;5.15;0.90;;;20.90;99.90;22.00;102062.00;;;;5048496;28;20213;-67
2022/10/09 11:25:04;;;;;;;0.50;0.50;;;21.00;99.90;21.90;102075.00;;;;5048583;28;20612;-67
2022/10/09 11:28:15;;;;;;;0.20;0.20;;;20.70;99.90;21.50;102082.00;;;;5048297;28;20524;-67
2022/10/09 11:30:58;;;;;;;0.22;0.22;;;20.50;99.90;21.60;102080.00;;;;5047727;28;20261;-67
2022/10/09 11:33:46;;;;;;;0.15;0.15;;;20.50;99.90;21.70;102069.00;;;;5048273;28;20193;-67
2022/10/09 11:36:36;;;;;;;1.60;0.90;;;20.60;99.90;21.20;102076.00;;;;5048260;28;20233;-66
2022/10/09 11:40:10;;;;;;;0.20;0.20;;;20.60;99.90;21.30;102079.00;;;;5047649;28;20198;-70
2022/10/09 11:43:17;;;;;;;0.73;0.47;;;20.30;99.90;20.40;102091.00;;;;5043605;28;20733;-66
2022/10/09 11:46:30;;;;;;;0.35;0.35;;;19.80;99.90;20.30;102089.00;;;;5035160;28;20582;-67